createdAt,value
2022-12-11T00:00:05.308Z,100.00
2022-12-11T00:02:32.108Z,100.00
2022-12-11T00:04:58.700Z,100.00
2022-12-11T00:07:25.638Z,100.00
2022-12-11T00:09:52.466Z,100.00
2022-12-11T00:12:19.116Z,100.00
2022-12-11T00:14:45.816Z,100.00
2022-12-11T00:17:12.380Z,100.00
2022-12-11T00:19:39.044Z,100.00
2022-12-11T00:22:05.633Z,100.00
2022-12-11T00:24:32.493Z,100.00
2022-12-11T00:26:59.134Z,100.00
2022-12-11T00:29:25.768Z,100.00
2022-12-11T00:31:52.424Z,100.00
2022-12-11T00:34:19.048Z,100.00
2022-12-11T00:36:45.745Z,100.00
2022-12-11T00:39:12.343Z,100.00
2022-12-11T00:41:38.961Z,100.00
2022-12-11T00:44:05.805Z,100.00
2022-12-11T00:46:32.430Z,100.00
2022-12-11T00:48:59.015Z,100.00
2022-12-11T00:51:26.129Z,100.00
2022-12-11T00:53:52.744Z,100.00
2022-12-11T00:56:20.840Z,100.00
2022-12-11T00:58:48.008Z,100.00
2022-12-11T01:01:17.355Z,100.00
2022-12-11T01:03:44.338Z,100.00
2022-12-11T01:06:15.584Z,100.00
2022-12-11T01:08:42.477Z,100.00
2022-12-11T01:11:10.364Z,100.00
2022-12-11T01:13:37.186Z,100.00
2022-12-11T01:16:10.713Z,100.00
2022-12-11T01:18:37.552Z,100.00
2022-12-11T01:21:11.161Z,100.00
2022-12-11T01:23:38.123Z,100.00
2022-12-11T01:26:06.216Z,100.00
2022-12-11T01:28:32.920Z,100.00
2022-12-11T01:30:59.557Z,100.00
2022-12-11T01:33:26.654Z,100.00
2022-12-11T01:35:53.312Z,100.00
2022-12-11T01:38:19.921Z,100.00
2022-12-11T01:40:52.929Z,100.00
2022-12-11T01:43:19.551Z,100.00
2022-12-11T01:45:47.623Z,100.00
2022-12-11T01:48:16.142Z,100.00
2022-12-11T01:50:49.121Z,100.00
2022-12-11T01:53:19.682Z,100.00
2022-12-11T01:55:47.106Z,100.00
2022-12-11T01:58:15.256Z,100.00
2022-12-11T02:00:41.996Z,100.00
2022-12-11T02:03:08.605Z,100.00
2022-12-11T02:05:35.290Z,100.00
2022-12-11T02:08:03.127Z,100.00
2022-12-11T02:10:52.936Z,100.00
2022-12-11T02:13:23.864Z,100.00
2022-12-11T02:16:04.965Z,100.00
2022-12-11T02:18:36.691Z,100.00
2022-12-11T02:21:15.533Z,100.00
2022-12-11T02:24:00.815Z,100.00
2022-12-11T02:26:46.698Z,100.00
2022-12-11T02:29:16.778Z,100.00
2022-12-11T02:32:00.035Z,100.00
2022-12-11T02:34:26.618Z,100.00
2022-12-11T02:36:57.256Z,100.00
2022-12-11T02:39:25.665Z,100.00
2022-12-11T02:41:52.244Z,100.00
2022-12-11T02:44:24.728Z,100.00
2022-12-11T02:46:52.461Z,100.00
2022-12-11T02:49:20.094Z,100.00
2022-12-11T02:51:46.903Z,100.00
2022-12-11T02:54:18.075Z,100.00
2022-12-11T02:56:47.097Z,100.00
2022-12-11T02:59:24.042Z,100.00
2022-12-11T03:01:50.782Z,100.00
2022-12-11T03:04:17.565Z,100.00
2022-12-11T03:06:47.350Z,100.00
2022-12-11T03:09:14.279Z,100.00
2022-12-11T03:11:40.872Z,100.00
2022-12-11T03:14:08.210Z,100.00
2022-12-11T03:16:36.665Z,100.00
2022-12-11T03:19:03.251Z,100.00
2022-12-11T03:21:32.682Z,100.00
2022-12-11T03:24:05.238Z,100.00
2022-12-11T03:26:37.411Z,100.00
2022-12-11T03:29:08.589Z,100.00
2022-12-11T03:31:40.951Z,100.00
2022-12-11T03:34:27.731Z,100.00
2022-12-11T03:36:55.740Z,100.00
2022-12-11T03:39:26.937Z,100.00
2022-12-11T03:41:54.673Z,100.00
2022-12-11T03:44:22.797Z,100.00
2022-12-11T03:46:50.143Z,100.00
2022-12-11T03:49:19.586Z,100.00
2022-12-11T03:51:47.380Z,100.00
2022-12-11T03:54:14.498Z,100.00
2022-12-11T03:56:43.138Z,100.00
2022-12-11T03:59:09.764Z,100.00
2022-12-11T04:01:37.396Z,100.00
2022-12-11T04:04:04.253Z,100.00
2022-12-11T04:06:30.932Z,100.00
2022-12-11T04:08:57.523Z,100.00
2022-12-11T04:11:36.238Z,100.00
2022-12-11T04:14:25.932Z,100.00
2022-12-11T04:16:53.128Z,100.00
2022-12-11T04:19:38.719Z,100.00
2022-12-11T04:22:14.781Z,100.00
2022-12-11T04:24:41.453Z,100.00
2022-12-11T04:27:08.030Z,100.00
2022-12-11T04:29:36.202Z,100.00
2022-12-11T04:32:02.824Z,100.00
2022-12-11T04:34:29.546Z,100.00
2022-12-11T04:36:56.125Z,100.00
2022-12-11T04:39:22.777Z,100.00
2022-12-11T04:41:49.346Z,100.00
2022-12-11T04:44:16.034Z,100.00
2022-12-11T04:46:42.722Z,100.00
2022-12-11T04:49:10.109Z,100.00
2022-12-11T04:51:36.648Z,100.00
2022-12-11T04:54:03.240Z,100.00
2022-12-11T04:56:29.911Z,100.00
2022-12-11T04:58:56.524Z,100.00
2022-12-11T05:01:23.240Z,100.00
2022-12-11T05:03:49.983Z,100.00
2022-12-11T05:06:16.605Z,100.00
2022-12-11T05:08:43.690Z,100.00
2022-12-11T05:11:12.849Z,100.00
2022-12-11T05:13:39.720Z,100.00
2022-12-11T05:16:07.334Z,100.00
2022-12-11T05:18:34.243Z,100.00
2022-12-11T05:21:02.046Z,100.00
2022-12-11T05:23:28.834Z,100.00
2022-12-11T05:25:55.953Z,100.00
2022-12-11T05:28:22.969Z,100.00
2022-12-11T05:30:49.615Z,100.00
2022-12-11T05:33:16.208Z,100.00
2022-12-11T05:35:46.836Z,100.00
2022-12-11T05:38:13.389Z,100.00
2022-12-11T05:40:40.006Z,100.00
2022-12-11T05:43:06.636Z,100.00
2022-12-11T05:45:33.355Z,100.00
2022-12-11T05:48:00.083Z,100.00
2022-12-11T05:50:26.588Z,100.00
2022-12-11T05:52:53.191Z,100.00
2022-12-11T05:55:19.908Z,100.00
2022-12-11T05:57:46.535Z,100.00
2022-12-11T06:00:13.355Z,100.00
2022-12-11T06:02:40.034Z,100.00
2022-12-11T06:05:06.797Z,100.00
2022-12-11T06:07:33.386Z,100.00
2022-12-11T06:09:59.923Z,100.00
2022-12-11T06:12:27.295Z,100.00
2022-12-11T06:14:53.845Z,100.00
2022-12-11T06:17:20.451Z,100.00
2022-12-11T06:19:47.046Z,100.00
2022-12-11T06:22:13.658Z,100.00
2022-12-11T06:24:40.187Z,100.00
2022-12-11T06:27:06.767Z,100.00
2022-12-11T06:29:33.375Z,100.00
2022-12-11T06:31:59.948Z,100.00
2022-12-11T06:34:26.571Z,100.00
2022-12-11T06:36:53.198Z,100.00
2022-12-11T06:39:20.271Z,100.00
2022-12-11T06:41:46.971Z,100.00
2022-12-11T06:44:13.603Z,100.00
2022-12-11T06:46:40.249Z,100.00
2022-12-11T06:49:06.766Z,100.00
2022-12-11T06:51:33.339Z,100.00
2022-12-11T06:53:59.877Z,100.00
2022-12-11T06:56:26.538Z,100.00
2022-12-11T06:58:53.376Z,100.00
2022-12-11T07:01:24.979Z,100.00
2022-12-11T07:03:55.227Z,100.00
2022-12-11T07:06:22.482Z,100.00
2022-12-11T07:08:49.241Z,100.00
2022-12-11T07:11:16.635Z,100.00
2022-12-11T07:13:43.463Z,100.00
2022-12-11T07:16:11.139Z,100.00
2022-12-11T07:18:38.413Z,100.00
2022-12-11T07:21:05.595Z,100.00
2022-12-11T07:23:32.194Z,100.00
2022-12-11T07:25:58.851Z,100.00
2022-12-11T07:28:26.284Z,100.00
2022-12-11T07:30:52.875Z,100.00
2022-12-11T07:33:19.461Z,100.00
2022-12-11T07:35:46.868Z,100.00
2022-12-11T07:38:13.527Z,100.00
2022-12-11T07:40:40.089Z,100.00
2022-12-11T07:43:06.778Z,100.00
2022-12-11T07:45:33.500Z,100.00
2022-12-11T07:48:00.227Z,100.00
2022-12-11T07:50:26.891Z,100.00
2022-12-11T07:52:53.621Z,100.00
2022-12-11T07:55:20.413Z,100.00
2022-12-11T07:57:46.966Z,100.00
2022-12-11T08:00:13.928Z,100.00
2022-12-11T08:02:41.051Z,100.00
2022-12-11T08:05:08.299Z,100.00
2022-12-11T08:07:35.764Z,100.00
2022-12-11T08:10:02.781Z,100.00
2022-12-11T08:12:29.334Z,100.00
2022-12-11T08:14:55.960Z,100.00
2022-12-11T08:17:28.947Z,73.09
2022-12-11T08:19:56.766Z,69.44
2022-12-11T08:22:23.383Z,68.90
2022-12-11T08:24:50.017Z,67.02
2022-12-11T08:27:16.660Z,67.06
2022-12-11T08:29:43.233Z,67.37
2022-12-11T08:32:12.439Z,68.98
2022-12-11T08:34:39.535Z,69.39
2022-12-11T08:37:06.225Z,70.44
2022-12-11T08:39:32.758Z,71.52
2022-12-11T08:41:59.292Z,71.19
2022-12-11T08:44:27.171Z,70.28
2022-12-11T08:46:53.791Z,70.26
2022-12-11T08:49:20.368Z,71.65
2022-12-11T08:51:47.046Z,72.40
2022-12-11T08:54:13.619Z,73.37
2022-12-11T08:56:40.421Z,71.40
2022-12-11T08:59:09.461Z,70.51
2022-12-11T09:01:36.272Z,69.48
2022-12-11T09:04:02.925Z,69.82
2022-12-11T09:06:30.715Z,68.82
2022-12-11T09:08:59.298Z,68.69
2022-12-11T09:11:27.791Z,70.49
2022-12-11T09:13:54.666Z,70.23
2022-12-11T09:16:22.377Z,69.63
2022-12-11T09:18:50.308Z,70.73
2022-12-11T09:21:18.552Z,69.84
2022-12-11T09:23:45.266Z,70.31
2022-12-11T09:26:13.609Z,70.81
2022-12-11T09:28:45.986Z,70.98
2022-12-11T09:31:19.235Z,69.75
2022-12-11T09:33:46.292Z,70.63
2022-12-11T09:36:13.020Z,70.87
2022-12-11T09:38:39.800Z,69.84
2022-12-11T09:41:21.745Z,70.48
2022-12-11T09:44:00.183Z,69.87
2022-12-11T09:46:33.531Z,71.86
2022-12-11T09:49:01.980Z,70.67
2022-12-11T09:51:44.033Z,68.59
2022-12-11T09:54:13.304Z,70.60
2022-12-11T09:56:45.521Z,71.20
2022-12-11T09:59:24.300Z,70.40
2022-12-11T10:01:55.329Z,70.55
2022-12-11T10:04:29.789Z,71.34
2022-12-11T10:07:08.702Z,71.40
2022-12-11T10:09:41.174Z,72.92
2022-12-11T10:12:07.742Z,72.36
2022-12-11T10:14:37.441Z,72.59
2022-12-11T10:17:09.334Z,71.40
2022-12-11T10:19:36.327Z,72.59
2022-12-11T10:22:03.415Z,73.39
2022-12-11T10:25:09.619Z,72.37
2022-12-11T10:27:23.164Z,73.47
2022-12-11T10:29:55.216Z,73.42
2022-12-11T10:32:24.795Z,73.14
2022-12-11T10:34:56.961Z,74.43
2022-12-11T10:37:23.522Z,73.99
2022-12-11T10:39:50.082Z,75.16
2022-12-11T10:42:19.311Z,77.16
2022-12-11T10:44:59.760Z,78.91
2022-12-11T10:47:26.960Z,81.48
2022-12-11T10:49:55.990Z,84.31
2022-12-11T10:52:25.409Z,89.99
2022-12-11T10:55:14.663Z,91.09
2022-12-11T10:57:41.647Z,92.48
2022-12-11T11:00:25.653Z,93.50
2022-12-11T11:02:52.372Z,91.56
2022-12-11T11:05:30.508Z,89.41
2022-12-11T11:08:19.294Z,89.55
2022-12-11T11:10:59.243Z,89.40
2022-12-11T11:13:27.277Z,88.27
2022-12-11T11:16:04.613Z,87.85
2022-12-11T11:18:32.090Z,87.46
2022-12-11T11:20:59.188Z,88.40
2022-12-11T11:23:26.468Z,89.63
2022-12-11T11:25:58.328Z,90.51
2022-12-11T11:28:29.675Z,90.35
2022-12-11T11:31:04.122Z,88.50
2022-12-11T11:33:32.913Z,85.22
2022-12-11T11:36:02.503Z,88.32
2022-12-11T11:38:29.062Z,89.40
2022-12-11T11:41:11.497Z,93.42
2022-12-11T11:43:47.407Z,100.00
2022-12-11T11:46:17.407Z,100.00
2022-12-11T11:48:50.039Z,100.00
2022-12-11T11:51:35.383Z,100.00
2022-12-11T11:54:08.248Z,100.00
2022-12-11T11:56:37.713Z,100.00
2022-12-11T11:59:25.231Z,100.00
2022-12-11T12:01:54.071Z,100.00
2022-12-11T12:04:20.668Z,100.00
2022-12-11T12:06:58.012Z,100.00
2022-12-11T12:09:27.720Z,100.00
2022-12-11T12:12:00.102Z,100.00
2022-12-11T12:14:52.016Z,100.00
2022-12-11T12:17:19.184Z,100.00
2022-12-11T12:20:02.487Z,100.00
2022-12-11T12:22:41.307Z,100.00
2022-12-11T12:25:17.045Z,100.00
2022-12-11T12:27:52.838Z,100.00
2022-12-11T12:30:22.993Z,100.00
2022-12-11T12:32:57.603Z,100.00
2022-12-11T12:35:26.977Z,100.00
2022-12-11T12:38:02.495Z,100.00
2022-12-11T12:40:34.375Z,100.00
2022-12-11T12:43:39.904Z,100.00
2022-12-11T12:46:16.426Z,100.00
2022-12-11T12:48:44.030Z,100.00
2022-12-11T12:51:13.303Z,100.00
2022-12-11T12:53:41.520Z,100.00
2022-12-11T12:56:08.664Z,100.00
2022-12-11T12:58:35.476Z,100.00
2022-12-11T13:01:08.330Z,100.00
2022-12-11T13:03:58.458Z,100.00
2022-12-11T13:06:36.841Z,100.00
2022-12-11T13:09:17.440Z,100.00
2022-12-11T13:11:45.228Z,100.00
2022-12-11T13:14:11.823Z,100.00
2022-12-11T13:16:39.907Z,100.00
2022-12-11T13:19:27.805Z,100.00
2022-12-11T13:21:55.088Z,100.00
2022-12-11T13:24:21.860Z,100.00
2022-12-11T13:26:49.093Z,100.00
2022-12-11T13:29:34.478Z,100.00
2022-12-11T13:32:20.907Z,100.00
2022-12-11T13:34:58.889Z,100.00
2022-12-11T13:37:41.851Z,100.00
2022-12-11T13:40:14.446Z,100.00
2022-12-11T13:42:48.308Z,100.00
2022-12-11T13:45:28.225Z,100.00
2022-12-11T13:47:58.583Z,100.00
2022-12-11T13:50:28.474Z,100.00
2022-12-11T13:52:58.695Z,100.00
2022-12-11T13:55:27.246Z,100.00
2022-12-11T13:57:54.010Z,100.00
2022-12-11T14:00:22.277Z,100.00
2022-12-11T14:02:51.799Z,100.00
2022-12-11T14:05:19.189Z,100.00
2022-12-11T14:07:57.546Z,100.00
2022-12-11T14:10:25.815Z,100.00
2022-12-11T14:13:01.558Z,100.00
2022-12-11T14:15:29.617Z,100.00
2022-12-11T14:17:56.844Z,100.00
2022-12-11T14:20:25.853Z,100.00
2022-12-11T14:22:52.463Z,100.00
2022-12-11T14:25:21.777Z,100.00
2022-12-11T14:27:49.912Z,100.00
2022-12-11T14:30:27.502Z,100.00
2022-12-11T14:32:56.910Z,100.00
2022-12-11T14:35:37.110Z,100.00
2022-12-11T14:38:11.108Z,100.00
2022-12-11T14:40:43.324Z,100.00
2022-12-11T14:43:19.857Z,100.00
2022-12-11T14:45:49.524Z,100.00
2022-12-11T14:48:20.210Z,100.00
2022-12-11T14:50:52.236Z,100.00
2022-12-11T14:53:24.301Z,100.00
2022-12-11T14:55:51.134Z,100.00
2022-12-11T14:58:21.231Z,100.00
2022-12-11T15:00:57.062Z,100.00
2022-12-11T15:03:26.110Z,100.00
2022-12-11T15:05:54.287Z,100.00
2022-12-11T15:08:25.628Z,100.00
2022-12-11T15:11:02.091Z,100.00
2022-12-11T15:13:28.720Z,100.00
2022-12-11T15:15:56.308Z,100.00
2022-12-11T15:18:25.852Z,100.00
2022-12-11T15:20:57.316Z,100.00
2022-12-11T15:23:24.119Z,100.00
2022-12-11T15:25:56.769Z,100.00
2022-12-11T15:28:28.587Z,100.00
2022-12-11T15:31:01.957Z,100.00
2022-12-11T15:33:34.095Z,100.00
2022-12-11T15:36:05.639Z,100.00
2022-12-11T15:38:37.465Z,100.00
2022-12-11T15:41:04.653Z,100.00
2022-12-11T15:43:34.634Z,100.00
2022-12-11T15:46:02.290Z,100.00
2022-12-11T15:48:28.984Z,100.00
2022-12-11T15:50:55.538Z,100.00
2022-12-11T15:53:22.678Z,100.00
2022-12-11T15:55:49.412Z,100.00
2022-12-11T15:58:21.063Z,100.00
2022-12-11T16:00:47.684Z,100.00
2022-12-11T16:03:15.367Z,100.00
2022-12-11T16:05:42.395Z,100.00
2022-12-11T16:08:12.831Z,100.00
2022-12-11T16:10:39.407Z,100.00
2022-12-11T16:13:06.028Z,100.00
2022-12-11T16:15:32.651Z,100.00
2022-12-11T16:18:00.210Z,100.00
2022-12-11T16:20:26.850Z,100.00
2022-12-11T16:22:53.511Z,100.00
2022-12-11T16:25:20.069Z,100.00
2022-12-11T16:27:47.107Z,100.00
2022-12-11T16:30:14.112Z,100.00
2022-12-11T16:32:40.765Z,100.00
2022-12-11T16:35:07.499Z,100.00
2022-12-11T16:37:34.084Z,100.00
2022-12-11T16:40:00.645Z,100.00
2022-12-11T16:42:27.324Z,100.00
2022-12-11T16:44:53.923Z,100.00
2022-12-11T16:47:20.534Z,100.00
2022-12-11T16:49:47.145Z,100.00
2022-12-11T16:52:17.591Z,100.00
2022-12-11T16:54:47.189Z,100.00
2022-12-11T16:57:13.808Z,100.00
2022-12-11T16:59:40.864Z,100.00
2022-12-11T17:02:07.449Z,100.00
2022-12-11T17:04:34.021Z,100.00
2022-12-11T17:07:00.655Z,100.00
2022-12-11T17:09:27.312Z,100.00
2022-12-11T17:11:53.983Z,100.00
2022-12-11T17:14:20.724Z,100.00
2022-12-11T17:16:48.178Z,100.00
2022-12-11T17:19:15.062Z,100.00
2022-12-11T17:21:44.784Z,100.00
2022-12-11T17:24:16.432Z,100.00
2022-12-11T17:26:43.049Z,100.00
2022-12-11T17:29:11.810Z,100.00
2022-12-11T17:31:38.614Z,100.00
2022-12-11T17:34:05.197Z,100.00
2022-12-11T17:36:31.831Z,100.00
2022-12-11T17:38:58.428Z,100.00
2022-12-11T17:41:25.188Z,100.00
2022-12-11T17:43:52.727Z,100.00
2022-12-11T17:46:20.134Z,100.00
2022-12-11T17:48:48.524Z,100.00
2022-12-11T17:51:24.024Z,100.00
2022-12-11T17:53:52.392Z,100.00
2022-12-11T17:56:18.958Z,100.00
2022-12-11T17:58:47.770Z,100.00
2022-12-11T18:01:14.784Z,100.00
2022-12-11T18:03:41.670Z,100.00
2022-12-11T18:06:10.189Z,100.00
2022-12-11T18:08:37.286Z,100.00
2022-12-11T18:11:05.454Z,100.00
2022-12-11T18:13:32.145Z,100.00
2022-12-11T18:16:04.479Z,100.00
2022-12-11T18:18:31.379Z,100.00
2022-12-11T18:20:57.984Z,100.00
2022-12-11T18:23:24.744Z,100.00
2022-12-11T18:25:51.970Z,100.00
2022-12-11T18:28:19.249Z,100.00
2022-12-11T18:30:46.240Z,100.00
2022-12-11T18:33:13.324Z,100.00
2022-12-11T18:35:40.310Z,100.00
2022-12-11T18:38:07.329Z,100.00
2022-12-11T18:40:34.002Z,100.00
2022-12-11T18:43:00.558Z,100.00
2022-12-11T18:45:27.246Z,100.00
2022-12-11T18:47:55.749Z,100.00
2022-12-11T18:50:22.461Z,100.00
2022-12-11T18:52:52.693Z,100.00
2022-12-11T18:55:20.359Z,100.00
2022-12-11T18:57:46.940Z,100.00
2022-12-11T19:00:13.946Z,100.00
2022-12-11T19:02:40.599Z,100.00
2022-12-11T19:05:07.352Z,100.00
2022-12-11T19:07:34.086Z,100.00
2022-12-11T19:10:00.759Z,100.00
2022-12-11T19:12:27.415Z,100.00
2022-12-11T19:14:54.658Z,100.00
2022-12-11T19:17:21.511Z,100.00
2022-12-11T19:19:48.141Z,100.00
2022-12-11T19:22:15.124Z,100.00
2022-12-11T19:24:41.717Z,100.00
2022-12-11T19:27:13.225Z,100.00
2022-12-11T19:29:40.331Z,100.00
2022-12-11T19:32:06.999Z,100.00
2022-12-11T19:34:33.579Z,100.00
2022-12-11T19:37:00.225Z,100.00
2022-12-11T19:39:26.938Z,100.00
2022-12-11T19:41:53.540Z,100.00
2022-12-11T19:44:20.150Z,100.00
2022-12-11T19:46:46.807Z,100.00
2022-12-11T19:49:13.941Z,100.00
2022-12-11T19:51:41.447Z,100.00
2022-12-11T19:54:09.152Z,100.00
2022-12-11T19:56:35.854Z,100.00
2022-12-11T19:59:03.891Z,100.00
2022-12-11T20:01:31.323Z,100.00
2022-12-11T20:03:59.610Z,100.00
2022-12-11T20:06:28.860Z,100.00
2022-12-11T20:08:55.488Z,100.00
2022-12-11T20:11:22.409Z,100.00
2022-12-11T20:13:49.457Z,100.00
2022-12-11T20:16:16.831Z,100.00
2022-12-11T20:18:44.048Z,100.00
2022-12-11T20:21:13.612Z,100.00
2022-12-11T20:23:41.410Z,100.00
2022-12-11T20:26:13.441Z,100.00
2022-12-11T20:28:40.192Z,100.00
2022-12-11T20:31:14.993Z,100.00
2022-12-11T20:33:46.258Z,100.00
2022-12-11T20:36:14.069Z,100.00
2022-12-11T20:38:41.639Z,100.00
2022-12-11T20:41:09.512Z,100.00
2022-12-11T20:43:36.835Z,100.00
2022-12-11T20:46:07.069Z,100.00
2022-12-11T20:48:33.846Z,100.00
2022-12-11T20:51:01.384Z,100.00
2022-12-11T20:53:28.572Z,100.00
2022-12-11T20:55:55.399Z,100.00
2022-12-11T20:58:21.954Z,100.00
2022-12-11T21:00:48.959Z,100.00
2022-12-11T21:03:15.939Z,100.00
2022-12-11T21:05:44.570Z,100.00
2022-12-11T21:08:11.668Z,100.00
2022-12-11T21:10:41.702Z,100.00
2022-12-11T21:13:08.819Z,100.00
2022-12-11T21:15:36.280Z,100.00
2022-12-11T21:18:03.033Z,100.00
2022-12-11T21:20:29.668Z,100.00
2022-12-11T21:22:57.568Z,100.00
2022-12-11T21:25:25.080Z,100.00
2022-12-11T21:27:52.007Z,100.00
2022-12-11T21:30:18.689Z,100.00
2022-12-11T21:32:45.448Z,100.00
2022-12-11T21:35:12.472Z,100.00
2022-12-11T21:37:41.802Z,100.00
2022-12-11T21:40:09.385Z,100.00
2022-12-11T21:42:35.942Z,100.00
2022-12-11T21:47:50.167Z,100.00
2022-12-11T21:50:16.908Z,100.00
2022-12-11T21:52:43.599Z,100.00
2022-12-11T21:55:11.948Z,100.00
2022-12-11T21:57:38.641Z,100.00
2022-12-11T22:00:05.555Z,100.00
2022-12-11T22:02:41.093Z,100.00
2022-12-11T22:05:08.288Z,100.00
2022-12-11T22:07:34.911Z,100.00
2022-12-11T22:10:01.705Z,100.00
2022-12-11T22:12:28.610Z,100.00
2022-12-11T22:14:56.156Z,100.00
2022-12-11T22:17:22.912Z,100.00
2022-12-11T22:19:51.940Z,100.00
2022-12-11T22:22:19.302Z,100.00
2022-12-11T22:24:46.222Z,100.00
2022-12-11T22:27:12.864Z,100.00
2022-12-11T22:29:39.384Z,100.00
2022-12-11T22:32:06.031Z,100.00
2022-12-11T22:34:32.690Z,100.00
2022-12-11T22:36:59.763Z,100.00
2022-12-11T22:39:26.307Z,100.00
2022-12-11T22:41:53.802Z,100.00
2022-12-11T22:44:21.233Z,100.00
2022-12-11T22:46:50.185Z,100.00
2022-12-11T22:49:17.899Z,100.00
2022-12-11T22:51:44.548Z,100.00
2022-12-11T22:54:11.434Z,100.00
2022-12-11T22:56:38.583Z,100.00
2022-12-11T22:59:05.231Z,100.00
2022-12-11T23:01:31.926Z,100.00
2022-12-11T23:03:58.469Z,100.00
2022-12-11T23:06:25.437Z,100.00
2022-12-11T23:08:53.074Z,100.00
2022-12-11T23:11:24.751Z,100.00
2022-12-11T23:13:51.845Z,100.00
2022-12-11T23:16:18.757Z,100.00
2022-12-11T23:18:45.454Z,100.00
2022-12-11T23:21:12.794Z,100.00
2022-12-11T23:23:39.397Z,100.00
2022-12-11T23:26:06.965Z,100.00
2022-12-11T23:28:34.015Z,100.00
2022-12-11T23:31:00.749Z,100.00
2022-12-11T23:33:27.420Z,100.00
2022-12-11T23:35:54.090Z,100.00
2022-12-11T23:38:20.776Z,100.00
2022-12-11T23:40:47.334Z,100.00
2022-12-11T23:43:13.919Z,100.00
2022-12-11T23:45:43.026Z,100.00
2022-12-11T23:48:09.617Z,100.00
2022-12-11T23:50:36.252Z,100.00
2022-12-11T23:53:02.896Z,100.00
2022-12-11T23:55:29.570Z,100.00
2022-12-11T23:57:56.136Z,100.00
